Terminal Aerodrome Forecast
Issued by NWS

Home | Current Version | Previous Version | Text Only | Print | Product List | Glossary On
Versions: 1 2 3 4 5 6 7 8 9 10 11 12 13 14 15 16 17 18 19 20 21 22 23 24 25 26 27 28 29
549
FTUS41 KOKX 062140 AAB
TAFHPN
TAF AMD
KHPN 062140Z 0622/0718 09010G16KT P6SM -RA BKN004 OVC006
     FM062300 09009KT 3SM -DZ BR OVC008
     FM070000 10008KT 1SM -DZ BR OVC002
     FM071200 08008KT 5SM BR OVC010
      AMD NOT SKED=

USA.gov is the U.S. government's official web portal to all federal, state and local government web resources and services.